LTBJ/ADB METAR and TAF weather

Enter ICAO airport designator
Station Type Date Time Source
LTBJ METAR 2020/07/15 00:50 UTC NOAA

LTBJ 150050Z 36012KT CAVOK 22/14 Q1010 NOSIG


Station Type Date Time Source
LTBJ Decoded METAR 2020/07/15 00:50 UTC NOAA

Izmir / Adnan Menderes, Turkey (LTBJ) 38-16N 027-09E 120M
Jul 14, 2020 - 08:50 PM EDT / 2020.07.15 0050 UTC
Wind: from the N (360 degrees) at 14 MPH (12 KT):0
Visibility: greater than 7 mile(s):0
Temperature: 71 F (22 C)
Dew Point: 57 F (14 C)
Relative Humidity: 60%
Pressure (altimeter): 29.83 in. Hg (1010 hPa)
ob: LTBJ 150050Z 36012KT CAVOK 22/14 Q1010 NOSIG
cycle: 1

Station Type Date Time Source
LTBJ TAF 2020/07/14 18:03 UTC NOAA

TAF LTBJ 141640Z 1418/1518 36020G30KT CAVOK
BECMG 1418/1421 36013KT
BECMG 1506/1509 35018G30KT FEW030
BECMG 1514/1516 CAVOK

Example: see airport list